SARI METAR and TAF weather

Enter ICAO airport designator
Station Type Date Time Source
SARI METAR 2024/04/18 06:00 UTC NOAA

SARI 180600Z VRB02KT CAVOK 12/11 Q1019


Station Type Date Time Source
SARI Decoded METAR 2024/04/18 06:00 UTC NOAA

Iguazu Aerodrome, Argentina (SARI) 25-44S 054-28W 270M
Apr 18, 2024 - 02:00 AM EDT / 2024.04.18 0600 UTC
Wind: Variable at 2 MPH (2 KT):0
Visibility: greater than 7 mile(s):0
Temperature: 53 F (12 C)
Dew Point: 51 F (11 C)
Relative Humidity: 93%
Pressure (altimeter): 30.09 in. Hg (1019 hPa)
ob: SARI 180600Z VRB02KT CAVOK 12/11 Q1019
cycle: 6

Station Type Date Time Source
SARI TAF 2024/04/18 18:06 UTC NOAA